createdAt,value
2018-07-13T00:02:05.148Z,4.93
2018-07-13T00:04:33.380Z,4.70
2018-07-13T00:07:01.637Z,4.80
2018-07-13T00:09:29.853Z,4.50
2018-07-13T00:11:58.072Z,4.93
2018-07-13T00:14:26.641Z,4.33
2018-07-13T00:16:56.064Z,3.97
2018-07-13T00:19:24.757Z,4.73
2018-07-13T00:21:53.112Z,4.60
2018-07-13T00:24:21.356Z,4.47
2018-07-13T00:26:49.583Z,4.83
2018-07-13T00:29:17.868Z,4.00
2018-07-13T00:31:46.101Z,4.80
2018-07-13T00:34:14.337Z,4.57
2018-07-13T00:36:42.578Z,4.80
2018-07-13T00:39:12.411Z,5.00
2018-07-13T00:41:40.640Z,4.63
2018-07-13T00:44:08.989Z,4.37
2018-07-13T00:46:37.215Z,4.77
2018-07-13T00:49:05.409Z,4.90
2018-07-13T00:51:33.629Z,4.43
2018-07-13T00:54:01.849Z,4.67
2018-07-13T00:56:30.050Z,5.10
2018-07-13T00:58:58.252Z,4.97
2018-07-13T01:01:26.473Z,5.03
2018-07-13T01:03:54.693Z,4.60
2018-07-13T01:06:22.916Z,4.50
2018-07-13T01:08:51.129Z,4.40
2018-07-13T01:11:19.333Z,4.67
2018-07-13T01:13:47.612Z,4.90
2018-07-13T01:16:15.824Z,4.33
2018-07-13T01:18:44.045Z,4.83
2018-07-13T01:21:12.281Z,4.50
2018-07-13T01:23:40.488Z,4.50
2018-07-13T01:26:08.704Z,4.80
2018-07-13T01:28:36.922Z,5.03
2018-07-13T01:31:05.160Z,4.70
2018-07-13T01:33:33.488Z,4.63
2018-07-13T01:36:01.713Z,4.50
2018-07-13T01:38:29.928Z,4.17
2018-07-13T01:40:58.181Z,4.77
2018-07-13T01:43:26.445Z,4.33
2018-07-13T01:45:54.656Z,3.63
2018-07-13T01:48:22.876Z,4.30
2018-07-13T01:50:51.085Z,3.70
2018-07-13T01:53:19.333Z,4.13
2018-07-13T01:55:47.601Z,3.80
2018-07-13T01:58:15.814Z,5.10
2018-07-13T02:00:44.036Z,3.93
2018-07-13T02:03:12.240Z,4.27
2018-07-13T02:05:40.457Z,4.50
2018-07-13T02:08:08.668Z,4.50
2018-07-13T02:10:36.892Z,4.30
2018-07-13T02:13:05.125Z,5.10
2018-07-13T02:15:33.367Z,5.47
2018-07-13T02:18:01.573Z,5.13
2018-07-13T02:20:29.805Z,5.70
2018-07-13T02:22:58.029Z,5.83
2018-07-13T02:25:26.241Z,5.57
2018-07-13T02:27:54.473Z,4.73
2018-07-13T02:30:22.687Z,4.47
2018-07-13T02:32:50.897Z,4.90
2018-07-13T02:35:19.101Z,4.60
2018-07-13T02:37:47.314Z,4.77
2018-07-13T02:40:15.521Z,4.93
2018-07-13T02:42:43.743Z,4.90
2018-07-13T02:45:11.954Z,5.03
2018-07-13T02:47:40.165Z,4.80
2018-07-13T02:50:08.373Z,5.30
2018-07-13T02:52:36.605Z,5.00
2018-07-13T02:55:04.876Z,4.77
2018-07-13T02:57:33.116Z,4.60
2018-07-13T03:00:01.346Z,4.93
2018-07-13T03:02:29.564Z,5.40
2018-07-13T03:04:57.787Z,5.53
2018-07-13T03:07:25.981Z,5.63
2018-07-13T03:09:54.212Z,4.37
2018-07-13T03:12:22.435Z,4.50
2018-07-13T03:14:50.660Z,4.60
2018-07-13T03:17:18.881Z,5.43
2018-07-13T03:19:47.081Z,5.03
2018-07-13T03:22:15.381Z,4.83
2018-07-13T03:24:43.534Z,5.60
2018-07-13T03:27:11.737Z,5.53
2018-07-13T03:29:39.950Z,5.33
2018-07-13T03:32:08.372Z,5.87
2018-07-13T03:34:36.604Z,5.20
2018-07-13T03:37:04.820Z,5.83
2018-07-13T03:39:33.049Z,5.47
2018-07-13T03:42:01.285Z,4.93
2018-07-13T03:44:29.528Z,5.87
2018-07-13T03:46:57.821Z,5.53
2018-07-13T03:49:26.084Z,5.50
2018-07-13T03:51:54.296Z,5.27
2018-07-13T03:54:22.507Z,5.87
2018-07-13T03:56:50.737Z,5.20
2018-07-13T03:59:18.972Z,6.30
2018-07-13T04:01:47.187Z,6.33
2018-07-13T04:04:15.492Z,5.87
2018-07-13T04:06:43.705Z,5.53
2018-07-13T04:09:12.237Z,5.67
2018-07-13T04:11:40.541Z,4.97
2018-07-13T04:14:09.323Z,6.20
2018-07-13T04:16:37.541Z,5.70
2018-07-13T04:19:06.129Z,6.37
2018-07-13T04:21:34.387Z,6.10
2018-07-13T04:24:02.638Z,5.63
2018-07-13T04:26:30.933Z,7.17
2018-07-13T04:28:59.219Z,6.87
2018-07-13T04:31:27.497Z,6.73
2018-07-13T04:33:55.720Z,6.93
2018-07-13T04:36:23.969Z,6.63
2018-07-13T04:38:52.180Z,6.30
2018-07-13T04:41:20.450Z,7.10
2018-07-13T04:43:48.679Z,6.07
2018-07-13T04:46:16.944Z,5.27
2018-07-13T04:48:45.201Z,8.50
2018-07-13T04:51:13.472Z,7.20
2018-07-13T04:53:41.765Z,6.87
2018-07-13T04:56:10.043Z,7.70
2018-07-13T04:58:38.332Z,7.60
2018-07-13T05:01:06.667Z,7.67
2018-07-13T05:03:34.924Z,8.63
2018-07-13T05:06:03.281Z,8.07
2018-07-13T05:08:31.596Z,8.07
2018-07-13T05:10:59.805Z,8.90
2018-07-13T05:13:28.033Z,8.00
2018-07-13T05:15:57.148Z,7.67
2018-07-13T05:18:25.376Z,7.63
2018-07-13T05:20:53.628Z,7.97
2018-07-13T05:23:21.889Z,8.63
2018-07-13T05:25:50.179Z,8.00
2018-07-13T05:28:18.469Z,8.13
2018-07-13T05:30:46.899Z,6.90
2018-07-13T05:33:15.158Z,7.97
2018-07-13T05:35:43.420Z,7.87
2018-07-13T05:38:11.688Z,8.23
2018-07-13T05:40:40.117Z,8.13
2018-07-13T05:43:08.360Z,8.60
2018-07-13T05:45:36.624Z,8.60
2018-07-13T05:48:04.936Z,9.40
2018-07-13T05:50:33.188Z,9.47
2018-07-13T05:53:01.448Z,8.67
2018-07-13T05:55:29.737Z,8.87
2018-07-13T05:57:57.998Z,10.37
2018-07-13T06:00:26.281Z,8.20
2018-07-13T06:02:54.580Z,9.77
2018-07-13T06:05:22.872Z,9.40
2018-07-13T06:07:51.094Z,9.70
2018-07-13T06:10:19.371Z,10.20
2018-07-13T06:12:47.681Z,9.27
2018-07-13T06:15:15.916Z,7.83
2018-07-13T06:17:44.177Z,10.67
2018-07-13T06:20:12.442Z,9.13
2018-07-13T06:22:40.953Z,9.30
2018-07-13T06:25:09.855Z,10.23
2018-07-13T06:27:38.181Z,8.73
2018-07-13T06:30:06.621Z,9.70
2018-07-13T06:32:35.004Z,9.57
2018-07-13T06:35:03.524Z,8.00
2018-07-13T06:37:31.804Z,9.10
2018-07-13T06:40:00.077Z,8.93
2018-07-13T06:42:28.273Z,9.77
2018-07-13T06:44:56.574Z,9.40
2018-07-13T06:47:24.733Z,8.83
2018-07-13T06:49:53.048Z,9.07
2018-07-13T06:52:21.313Z,8.73
2018-07-13T06:54:49.560Z,9.17
2018-07-13T06:57:29.313Z,9.10
2018-07-13T06:59:57.528Z,8.57
2018-07-13T07:02:37.040Z,9.03
2018-07-13T07:06:17.193Z,9.63
2018-07-13T07:08:47.481Z,9.37
2018-07-13T07:11:16.209Z,8.97
2018-07-13T07:13:44.933Z,8.77
2018-07-13T07:16:13.197Z,10.27
2018-07-13T07:18:41.680Z,8.97
2018-07-13T07:21:10.196Z,9.47
2018-07-13T07:23:38.636Z,9.90
2018-07-13T07:26:07.199Z,9.30
2018-07-13T07:28:35.448Z,10.10
2018-07-13T07:31:04.312Z,10.23
2018-07-13T07:33:32.529Z,9.27
2018-07-13T07:36:00.740Z,9.60
2018-07-13T07:38:29.240Z,10.60
2018-07-13T07:40:57.425Z,9.97
2018-07-13T07:43:25.709Z,9.30
2018-07-13T07:45:54.009Z,11.13
2018-07-13T07:48:22.319Z,9.07
2018-07-13T07:50:50.564Z,9.70
2018-07-13T07:53:19.085Z,9.73
2018-07-13T07:55:47.333Z,10.47
2018-07-13T07:58:15.673Z,9.97
2018-07-13T08:00:43.915Z,10.13
2018-07-13T08:03:12.600Z,9.87
2018-07-13T08:05:40.817Z,7.83
2018-07-13T08:08:10.041Z,8.27
2018-07-13T08:10:38.378Z,8.53
2018-07-13T08:13:06.701Z,8.80
2018-07-13T08:15:35.465Z,9.10
2018-07-13T08:18:03.693Z,8.53
2018-07-13T08:20:33.744Z,8.77
2018-07-13T08:23:05.071Z,8.07
2018-07-13T08:25:33.477Z,8.80
2018-07-13T08:28:02.373Z,7.73
2018-07-13T08:30:48.072Z,8.67
2018-07-13T08:33:16.616Z,7.13
2018-07-13T08:35:45.029Z,8.57
2018-07-13T08:38:13.593Z,7.30
2018-07-13T08:40:41.911Z,6.83
2018-07-13T08:43:10.156Z,7.07
2018-07-13T08:45:38.455Z,7.80
2018-07-13T08:48:06.665Z,6.90
2018-07-13T08:50:35.245Z,7.23
2018-07-13T08:53:03.793Z,6.93
2018-07-13T08:55:32.152Z,6.97
2018-07-13T08:58:00.472Z,6.20
2018-07-13T09:00:28.959Z,6.73
2018-07-13T09:02:57.199Z,4.93
2018-07-13T09:05:25.484Z,5.60
2018-07-13T09:07:53.805Z,6.30
2018-07-13T09:10:22.192Z,5.53
2018-07-13T09:12:50.428Z,5.07
2018-07-13T09:15:18.682Z,5.13
2018-07-13T09:17:46.953Z,4.73
2018-07-13T09:20:15.278Z,4.00
2018-07-13T09:22:43.520Z,5.70
2018-07-13T09:25:12.277Z,5.20
2018-07-13T09:27:41.269Z,4.97
2018-07-13T09:30:11.004Z,5.40
2018-07-13T09:32:39.264Z,5.03
2018-07-13T09:35:07.705Z,5.33
2018-07-13T09:37:36.324Z,5.60
2018-07-13T09:40:04.896Z,5.40
2018-07-13T09:42:33.309Z,6.40
2018-07-13T09:45:01.615Z,6.40
2018-07-13T09:47:30.066Z,7.17
2018-07-13T09:49:58.375Z,6.53
2018-07-13T09:52:26.620Z,6.57
2018-07-13T09:54:55.092Z,5.40
2018-07-13T09:57:23.685Z,7.07
2018-07-13T09:59:51.927Z,6.70
2018-07-13T10:02:20.200Z,7.57
2018-07-13T10:04:48.484Z,6.90
2018-07-13T10:07:17.903Z,5.80
2018-07-13T10:09:46.712Z,4.50
2018-07-13T10:12:14.933Z,4.70
2018-07-13T10:14:43.438Z,4.07
2018-07-13T10:17:11.902Z,4.37
2018-07-13T10:19:40.290Z,4.27
2018-07-13T10:22:09.768Z,3.40
2018-07-13T10:24:38.135Z,3.13
2018-07-13T10:27:06.413Z,2.70
2018-07-13T10:29:37.784Z,2.60
2018-07-13T10:32:06.109Z,2.77
2018-07-13T10:34:34.422Z,2.80
2018-07-13T10:37:04.670Z,2.50
2018-07-13T10:39:33.387Z,2.30
2018-07-13T10:42:02.001Z,2.27
2018-07-13T10:44:30.428Z,2.50
2018-07-13T10:46:58.721Z,2.20
2018-07-13T10:49:27.073Z,2.30
2018-07-13T10:51:55.284Z,2.07
2018-07-13T10:54:23.553Z,2.10
2018-07-13T10:56:51.863Z,1.80
2018-07-13T10:59:20.041Z,2.03
2018-07-13T11:01:48.261Z,2.63
2018-07-13T11:04:17.102Z,2.30
2018-07-13T11:06:45.940Z,2.07
2018-07-13T11:09:14.161Z,1.93
2018-07-13T11:11:42.426Z,2.20
2018-07-13T11:14:11.229Z,2.23
2018-07-13T11:16:39.836Z,2.17
2018-07-13T11:19:08.069Z,2.07
2018-07-13T11:21:36.389Z,1.80
2018-07-13T11:24:04.697Z,2.00
2018-07-13T11:26:32.917Z,1.60
2018-07-13T11:29:01.277Z,2.50
2018-07-13T11:31:29.852Z,1.60
2018-07-13T11:33:58.317Z,2.30
2018-07-13T11:36:26.677Z,2.13
2018-07-13T11:38:55.085Z,2.17
2018-07-13T11:41:23.377Z,1.90
2018-07-13T11:43:51.665Z,2.07
2018-07-13T11:46:19.885Z,2.10
2018-07-13T11:48:48.476Z,2.00
2018-07-13T11:51:16.786Z,1.80
2018-07-13T11:53:45.054Z,1.67
2018-07-13T11:56:13.489Z,1.80
2018-07-13T11:58:41.757Z,2.10
2018-07-13T12:01:10.021Z,2.00
2018-07-13T12:03:38.358Z,2.00
2018-07-13T12:06:06.646Z,2.00
2018-07-13T12:08:35.138Z,2.23
2018-07-13T12:11:03.390Z,2.30
2018-07-13T12:13:31.593Z,2.57
2018-07-13T12:15:59.890Z,1.90
2018-07-13T12:18:28.245Z,1.80
2018-07-13T12:20:56.589Z,2.20
2018-07-13T12:23:24.836Z,1.77
2018-07-13T12:25:53.129Z,1.80
2018-07-13T12:28:21.712Z,1.67
2018-07-13T12:30:50.025Z,1.73
2018-07-13T12:33:18.461Z,1.60
2018-07-13T12:35:46.716Z,1.83
2018-07-13T12:38:15.009Z,1.70
2018-07-13T12:40:45.218Z,1.87
2018-07-13T12:43:15.869Z,1.63
2018-07-13T12:45:44.162Z,1.93
2018-07-13T12:48:12.372Z,2.10
2018-07-13T12:50:40.731Z,2.03
2018-07-13T12:53:09.112Z,2.60
2018-07-13T12:55:37.360Z,1.70
2018-07-13T12:58:05.946Z,1.97
2018-07-13T13:00:34.213Z,1.67
2018-07-13T13:03:02.558Z,1.63
2018-07-13T13:05:30.811Z,1.90
2018-07-13T13:07:59.126Z,1.50
2018-07-13T13:10:27.581Z,2.03
2018-07-13T13:12:56.060Z,1.90
2018-07-13T13:15:24.384Z,2.30
2018-07-13T13:17:52.640Z,2.07
2018-07-13T13:20:20.894Z,1.77
2018-07-13T13:22:49.126Z,2.23
2018-07-13T13:25:17.801Z,1.80
2018-07-13T13:27:46.496Z,2.10
2018-07-13T13:30:14.764Z,2.20
2018-07-13T13:32:43.061Z,1.90
2018-07-13T13:35:11.377Z,2.10
2018-07-13T13:37:44.448Z,1.80
2018-07-13T13:40:12.746Z,3.00
2018-07-13T13:42:40.981Z,1.87
2018-07-13T13:45:09.237Z,1.90
2018-07-13T13:47:37.621Z,1.77
2018-07-13T13:50:05.825Z,2.00
2018-07-13T13:52:34.063Z,2.07
2018-07-13T13:55:02.290Z,1.80
2018-07-13T13:57:30.533Z,2.13
2018-07-13T13:59:58.754Z,2.23
2018-07-13T14:02:27.039Z,2.00
2018-07-13T14:04:55.264Z,1.97
2018-07-13T14:07:23.466Z,2.43
2018-07-13T14:09:51.725Z,2.37
2018-07-13T14:12:19.991Z,2.13
2018-07-13T14:14:48.253Z,2.00
2018-07-13T14:17:16.416Z,1.90
2018-07-13T14:19:44.807Z,2.40
2018-07-13T14:22:13.038Z,1.93
2018-07-13T14:24:41.296Z,2.00
2018-07-13T14:27:09.520Z,2.03
2018-07-13T14:29:37.945Z,2.20
2018-07-13T14:32:06.192Z,1.90
2018-07-13T14:34:34.568Z,1.77
2018-07-13T14:37:02.836Z,1.90
2018-07-13T14:39:31.072Z,1.93
2018-07-13T14:41:59.293Z,2.30
2018-07-13T14:44:27.573Z,1.80
2018-07-13T14:46:55.856Z,2.10
2018-07-13T14:49:24.077Z,2.20
2018-07-13T14:51:52.340Z,2.00
2018-07-13T14:54:20.612Z,2.10
2018-07-13T14:56:48.864Z,1.90
2018-07-13T14:59:17.115Z,2.03
2018-07-13T15:01:45.409Z,2.33
2018-07-13T15:04:13.729Z,2.40
2018-07-13T15:06:42.094Z,3.13
2018-07-13T15:09:10.160Z,3.00
2018-07-13T15:11:38.399Z,2.30
2018-07-13T15:14:06.633Z,2.50
2018-07-13T15:16:34.857Z,2.10
2018-07-13T15:19:03.092Z,2.33
2018-07-13T15:21:31.385Z,2.03
2018-07-13T15:23:59.600Z,2.20
2018-07-13T15:26:27.883Z,2.30
2018-07-13T15:28:56.163Z,2.10
2018-07-13T15:31:24.409Z,2.50
2018-07-13T15:33:52.645Z,2.30
2018-07-13T15:36:20.861Z,2.40
2018-07-13T15:38:49.076Z,2.20
2018-07-13T15:41:17.325Z,2.23
2018-07-13T15:43:45.613Z,2.33
2018-07-13T15:46:13.833Z,2.10
2018-07-13T15:48:42.037Z,2.47
2018-07-13T15:51:10.312Z,2.20
2018-07-13T15:53:38.556Z,2.40
2018-07-13T15:56:06.931Z,2.50
2018-07-13T15:58:35.192Z,1.97
2018-07-13T16:01:03.508Z,2.10
2018-07-13T16:03:31.737Z,1.90
2018-07-13T16:05:59.987Z,2.17
2018-07-13T16:08:28.229Z,2.17
2018-07-13T16:10:56.464Z,2.10
2018-07-13T16:13:24.705Z,2.10
2018-07-13T16:15:52.944Z,2.50
2018-07-13T16:18:22.896Z,1.90
2018-07-13T16:20:51.149Z,2.10
2018-07-13T16:23:19.384Z,2.33
2018-07-13T16:25:47.593Z,2.17
2018-07-13T16:28:15.836Z,2.10
2018-07-13T16:30:44.118Z,2.10
2018-07-13T16:33:12.360Z,2.60
2018-07-13T16:35:40.628Z,1.90
2018-07-13T16:38:08.876Z,2.60
2018-07-13T16:40:37.099Z,2.40
2018-07-13T16:43:05.309Z,2.40
2018-07-13T16:45:33.559Z,2.20
2018-07-13T16:48:01.797Z,2.20
2018-07-13T16:50:30.083Z,2.33
2018-07-13T16:52:58.343Z,3.00
2018-07-13T16:55:26.596Z,2.50
2018-07-13T16:57:54.833Z,2.40
2018-07-13T17:00:23.175Z,2.57
2018-07-13T17:02:51.464Z,2.20
2018-07-13T17:05:19.718Z,2.20
2018-07-13T17:07:47.925Z,2.20
2018-07-13T17:10:16.224Z,2.83
2018-07-13T17:12:44.645Z,2.37
2018-07-13T17:15:12.873Z,2.00
2018-07-13T17:17:41.109Z,2.47
2018-07-13T17:20:09.375Z,17.63
2018-07-13T17:22:37.549Z,6.60
2018-07-13T17:25:06.173Z,5.77
2018-07-13T17:27:35.157Z,2.93
2018-07-13T17:30:03.494Z,2.70
2018-07-13T17:32:31.734Z,4.63
2018-07-13T17:35:00.033Z,3.83
2018-07-13T17:37:28.226Z,3.67
2018-07-13T17:39:56.492Z,5.67
2018-07-13T17:42:24.753Z,4.00
2018-07-13T17:44:53.008Z,4.93
2018-07-13T17:47:21.233Z,8.13
2018-07-13T17:49:49.456Z,8.33
2018-07-13T17:52:17.704Z,5.20
2018-07-13T17:54:45.949Z,3.90
2018-07-13T17:57:14.312Z,6.53
2018-07-13T17:59:42.545Z,5.63
2018-07-13T18:02:10.773Z,7.03
2018-07-13T18:04:39.033Z,8.33
2018-07-13T18:07:07.332Z,6.50
2018-07-13T18:09:35.537Z,6.00
2018-07-13T18:12:03.812Z,5.93
2018-07-13T18:14:32.041Z,3.60
2018-07-13T18:17:00.293Z,3.30
2018-07-13T18:19:28.561Z,3.23
2018-07-13T18:21:56.829Z,7.00
2018-07-13T18:24:25.057Z,5.27
2018-07-13T18:26:53.266Z,5.30
2018-07-13T18:29:21.492Z,5.30
2018-07-13T18:31:49.729Z,4.30
2018-07-13T18:34:17.968Z,3.10
2018-07-13T18:36:46.191Z,3.53
2018-07-13T18:39:14.412Z,3.70
2018-07-13T18:41:42.690Z,3.60
2018-07-13T18:44:10.984Z,2.80
2018-07-13T18:46:39.138Z,2.90
2018-07-13T18:49:07.379Z,2.80
2018-07-13T18:51:35.706Z,3.03
2018-07-13T18:54:03.988Z,2.90
2018-07-13T18:56:32.243Z,2.70
2018-07-13T18:59:00.474Z,2.70
2018-07-13T19:01:28.692Z,3.13
2018-07-13T19:03:56.925Z,2.87
2018-07-13T19:06:25.139Z,3.00
2018-07-13T19:08:53.360Z,2.80
2018-07-13T19:11:21.789Z,3.20
2018-07-13T19:13:50.049Z,3.40
2018-07-13T19:16:18.266Z,3.17
2018-07-13T19:18:46.474Z,2.70
2018-07-13T19:21:14.729Z,3.07
2018-07-13T19:23:42.928Z,2.80
2018-07-13T19:26:11.140Z,2.90
2018-07-13T19:28:39.353Z,2.60
2018-07-13T19:31:07.699Z,3.00
2018-07-13T19:33:35.923Z,2.63
2018-07-13T19:36:04.169Z,2.63
2018-07-13T19:38:32.374Z,2.97
2018-07-13T19:41:00.618Z,3.00
2018-07-13T19:43:28.846Z,2.80
2018-07-13T19:45:57.094Z,2.73
2018-07-13T19:48:25.335Z,2.87
2018-07-13T19:50:53.533Z,3.00
2018-07-13T19:53:21.773Z,3.20
2018-07-13T19:55:50.058Z,2.97
2018-07-13T19:58:18.280Z,2.93
2018-07-13T20:00:46.624Z,3.10
2018-07-13T20:03:14.861Z,3.00
2018-07-13T20:05:43.084Z,3.10
2018-07-13T20:08:11.308Z,3.27
2018-07-13T20:10:39.537Z,3.20
2018-07-13T20:13:07.770Z,3.10
2018-07-13T20:15:36.000Z,3.80
2018-07-13T20:18:04.244Z,3.50
2018-07-13T20:20:32.485Z,3.60
2018-07-13T20:23:00.735Z,3.33
2018-07-13T20:25:28.957Z,3.07
2018-07-13T20:27:57.172Z,3.47
2018-07-13T20:30:25.544Z,3.80
2018-07-13T20:32:53.765Z,3.10
2018-07-13T20:35:22.187Z,3.30
2018-07-13T20:37:50.780Z,3.50
2018-07-13T20:40:19.037Z,3.67
2018-07-13T20:42:47.310Z,3.57
2018-07-13T20:45:15.693Z,3.40
2018-07-13T20:47:43.968Z,3.37
2018-07-13T20:50:12.201Z,3.57
2018-07-13T20:52:40.423Z,3.60
2018-07-13T20:55:08.648Z,4.10
2018-07-13T20:57:36.883Z,3.80
2018-07-13T21:00:05.652Z,3.67
2018-07-13T21:02:33.894Z,3.60
2018-07-13T21:05:02.123Z,3.37
2018-07-13T21:07:30.346Z,3.90
2018-07-13T21:09:58.561Z,3.70
2018-07-13T21:12:26.773Z,3.80
2018-07-13T21:14:55.009Z,4.03
2018-07-13T21:17:23.257Z,3.80
2018-07-13T21:19:51.502Z,3.90
2018-07-13T21:22:19.712Z,3.43
2018-07-13T21:24:48.038Z,3.80
2018-07-13T21:27:16.287Z,4.47
2018-07-13T21:29:44.636Z,4.43
2018-07-13T21:32:12.852Z,4.20
2018-07-13T21:34:41.064Z,4.20
2018-07-13T21:37:09.305Z,3.97
2018-07-13T21:39:37.537Z,3.63
2018-07-13T21:42:06.174Z,4.27
2018-07-13T21:44:34.501Z,4.07
2018-07-13T21:47:02.813Z,4.23
2018-07-13T21:49:31.346Z,4.30
2018-07-13T21:51:59.667Z,4.90
2018-07-13T21:54:27.935Z,3.83
2018-07-13T21:56:56.182Z,4.30
2018-07-13T21:59:24.392Z,5.00
2018-07-13T22:01:52.640Z,4.30
2018-07-13T22:04:20.892Z,3.93
2018-07-13T22:06:49.156Z,4.60
2018-07-13T22:09:17.432Z,4.30
2018-07-13T22:11:45.633Z,4.73
2018-07-13T22:14:13.885Z,4.90
2018-07-13T22:16:42.102Z,4.20
2018-07-13T22:19:10.361Z,4.97
2018-07-13T22:21:38.666Z,4.50
2018-07-13T22:24:07.000Z,4.80
2018-07-13T22:26:35.257Z,4.80
2018-07-13T22:29:03.559Z,5.07
2018-07-13T22:31:31.749Z,5.07
2018-07-13T22:33:59.973Z,4.90
2018-07-13T22:36:28.184Z,4.80
2018-07-13T22:38:56.801Z,4.97
2018-07-13T22:41:25.257Z,5.50
2018-07-13T22:43:53.513Z,4.70
2018-07-13T22:46:21.766Z,5.83
2018-07-13T22:48:50.036Z,5.53
2018-07-13T22:51:18.268Z,5.67
2018-07-13T22:53:46.464Z,4.80
2018-07-13T22:56:14.738Z,5.07
2018-07-13T22:58:42.973Z,4.87
2018-07-13T23:01:11.197Z,5.67
2018-07-13T23:03:39.409Z,5.90
2018-07-13T23:06:07.637Z,5.73
2018-07-13T23:08:35.864Z,4.90
2018-07-13T23:11:04.144Z,6.00
2018-07-13T23:13:32.370Z,5.30
2018-07-13T23:16:00.606Z,5.60
2018-07-13T23:18:28.808Z,6.10
2018-07-13T23:20:57.016Z,5.30
2018-07-13T23:23:25.285Z,5.13
2018-07-13T23:25:53.541Z,6.00
2018-07-13T23:28:21.939Z,5.40
2018-07-13T23:30:50.162Z,4.77
2018-07-13T23:33:18.410Z,4.70
2018-07-13T23:35:46.713Z,5.70
2018-07-13T23:38:14.945Z,6.10
2018-07-13T23:40:43.164Z,5.60
2018-07-13T23:43:11.496Z,5.77
2018-07-13T23:45:39.761Z,5.13
2018-07-13T23:48:08.049Z,5.13
2018-07-13T23:50:37.066Z,5.83
2018-07-13T23:53:05.323Z,5.23
2018-07-13T23:55:33.522Z,5.80
2018-07-13T23:58:01.741Z,5.60
